Time;durP1;ratioP1;P1;durP2;ratioP2;P2;SDS_P1;SDS_P2;PMS_P1;PMS_P2;Temp;Humidity;BMP_temperature;BMP_pressure;BME280_temperature;BME280_humidity;BME280_pressure;Samples;Min_cycle;Max_cycle;Signal;HPM_P1;HPM_P2
2022/07/14 00:01:49;;;;;;;0.10;0.10;;;;;;;13.25;100.00;101983.47;10431853;28;20357;-72
2022/07/14 00:06:50;;;;;;;0.10;0.10;;;;;;;13.19;100.00;101985.88;10452008;28;20044;-71
2022/07/14 00:11:50;;;;;;;0.10;0.10;;;;;;;13.13;100.00;101976.59;10446198;28;20037;-71
2022/07/14 00:16:51;;;;;;;0.10;0.10;;;;;;;13.08;100.00;101968.16;10430404;28;20028;-71
2022/07/14 00:21:51;;;;;;;0.10;0.10;;;;;;;13.09;100.00;101976.06;10421505;28;20017;-71
2022/07/14 00:26:51;;;;;;;0.10;0.10;;;;;;;13.14;100.00;101975.59;10410140;28;20021;-71
2022/07/14 00:31:51;;;;;;;0.10;0.10;;;;;;;13.25;100.00;101980.78;10410260;28;20510;-71
2022/07/14 00:36:52;;;;;;;0.10;0.10;;;;;;;13.35;100.00;101972.69;10411536;28;20030;-71
2022/07/14 00:41:53;;;;;;;0.10;0.10;;;;;;;13.43;100.00;101970.13;10450926;28;20095;-71
2022/07/14 00:46:53;;;;;;;0.10;0.10;;;;;;;13.43;100.00;101967.44;10441824;28;20479;-71
2022/07/14 00:51:53;;;;;;;0.10;0.10;;;;;;;13.41;100.00;101958.75;10444183;28;20429;-71
2022/07/14 00:56:53;;;;;;;0.00;0.00;;;;;;;13.33;100.00;101954.13;10433782;28;20025;-71
2022/07/14 01:01:54;;;;;;;0.10;0.10;;;;;;;13.24;100.00;101952.31;10449971;28;20021;-71
2022/07/14 01:06:54;;;;;;;0.10;0.10;;;;;;;13.13;100.00;101949.84;10449722;28;20029;-71
2022/07/14 01:11:54;;;;;;;0.10;0.10;;;;;;;12.98;100.00;101954.00;10424624;28;20104;-71
2022/07/14 01:16:56;;;;;;;0.10;0.10;;;;;;;12.83;100.00;101951.81;10416270;28;20461;-71
2022/07/14 01:21:57;;;;;;;0.10;0.10;;;;;;;12.69;100.00;101941.59;10421137;28;20027;-71
2022/07/14 01:26:57;;;;;;;0.00;0.00;;;;;;;12.51;100.00;101941.50;10449094;28;20139;-71
2022/07/14 01:31:58;;;;;;;0.10;0.10;;;;;;;12.23;100.00;101951.25;10449570;28;20475;-71
2022/07/14 01:36:58;;;;;;;0.00;0.00;;;;;;;11.99;100.00;101949.03;10448841;28;20029;-71
2022/07/14 01:41:58;;;;;;;0.10;0.10;;;;;;;11.80;100.00;101949.81;10433192;28;20367;-71
2022/07/14 01:46:59;;;;;;;0.10;0.10;;;;;;;11.75;100.00;101950.25;10420211;28;20250;-71
2022/07/14 01:51:59;;;;;;;0.10;0.10;;;;;;;11.68;100.00;101934.94;10407759;28;20033;-71
2022/07/14 01:57:00;;;;;;;0.00;0.00;;;;;;;11.60;100.00;101932.09;10416189;28;20075;-71
2022/07/14 02:02:00;;;;;;;0.00;0.00;;;;;;;11.44;100.00;101925.50;10389877;28;20281;-71
2022/07/14 02:07:01;;;;;;;0.00;0.00;;;;;;;11.40;100.00;101934.72;10407369;28;20033;-71
2022/07/14 02:12:10;;;;;;;0.08;0.08;;;;;;;11.32;100.00;101938.09;10407601;28;20537;-71
2022/07/14 02:17:11;;;;;;;0.10;0.10;;;;;;;11.27;100.00;101943.00;10423595;28;20530;-71
2022/07/14 02:22:12;;;;;;;0.00;0.00;;;;;;;11.33;100.00;101939.78;10448420;28;20543;-71
2022/07/14 02:27:12;;;;;;;0.00;0.00;;;;;;;11.52;100.00;101951.50;10447516;28;20120;-71
2022/07/14 02:32:12;;;;;;;0.00;0.00;;;;;;;11.71;100.00;101948.81;10447152;28;20025;-71
2022/07/14 02:37:14;;;;;;;0.10;0.10;;;;;;;11.95;100.00;101940.44;10455489;28;20048;-71
2022/07/14 02:42:14;;;;;;;0.08;0.08;;;;;;;12.12;100.00;101941.56;10455555;28;20017;-71
2022/07/14 02:47:15;;;;;;;0.10;0.10;;;;;;;12.21;100.00;101945.19;10406371;28;20497;-71
2022/07/14 02:52:16;;;;;;;0.05;0.05;;;;;;;12.28;100.00;101945.50;10448775;28;20026;-71
2022/07/14 02:57:16;;;;;;;0.10;0.10;;;;;;;12.29;100.00;101942.66;10431006;28;20544;-71
2022/07/14 03:02:17;;;;;;;0.10;0.10;;;;;;;12.29;100.00;101944.50;10409979;28;20020;-71
2022/07/14 03:07:17;;;;;;;0.10;0.10;;;;;;;12.30;100.00;101947.00;10448897;28;20036;-71
2022/07/14 03:12:18;;;;;;;0.10;0.10;;;;;;;12.33;100.00;101940.53;10414404;28;20025;-71
2022/07/14 03:17:18;;;;;;;0.10;0.10;;;;;;;12.39;100.00;101930.16;10427005;28;20028;-70
2022/07/14 03:22:19;;;;;;;0.10;0.10;;;;;;;12.61;100.00;101938.78;10413219;28;20044;-70
2022/07/14 03:27:20;;;;;;;0.10;0.10;;;;;;;12.98;100.00;101929.94;10420868;28;20260;-72
2022/07/14 03:32:20;;;;;;;0.10;0.10;;;;;;;13.53;100.00;101925.41;10412858;28;20060;-72
2022/07/14 03:37:20;;;;;;;0.10;0.10;;;;;;;14.18;100.00;101930.50;10412364;28;20021;-71
2022/07/14 03:42:21;;;;;;;0.10;0.10;;;;;;;14.91;100.00;101940.03;10405327;28;20021;-72
2022/07/14 03:47:22;;;;;;;0.10;0.10;;;;;;;15.74;100.00;101950.91;10420088;28;20037;-72
2022/07/14 03:52:22;;;;;;;0.10;0.10;;;;;;;16.55;100.00;101953.72;10449951;28;20021;-72
2022/07/14 03:57:23;;;;;;;0.10;0.10;;;;;;;17.38;100.00;101947.91;10450515;28;20029;-72
2022/07/14 04:02:24;;;;;;;0.10;0.10;;;;;;;18.23;100.00;101947.00;10452642;28;20017;-70
2022/07/14 04:07:27;;;;;;;0.00;0.00;;;;;;;18.91;97.25;101945.97;10452064;28;20024;-71
2022/07/14 04:12:27;;;;;;;;;;;;;;;19.92;93.18;101948.81;10453028;28;20033;-71
2022/07/14 04:17:28;;;;;;;0.00;0.00;;;;;;;21.01;87.42;101951.06;10440371;28;20023;-71
2022/07/14 04:22:28;;;;;;;0.05;0.05;;;;;;;21.87;81.32;101953.22;10410759;28;20028;-71
2022/07/14 04:27:29;;;;;;;0.00;0.00;;;;;;;22.53;76.11;101952.44;10421599;28;20027;-71
2022/07/14 04:32:29;;;;;;;0.03;0.03;;;;;;;23.10;73.37;101952.75;10417560;28;20482;-71
2022/07/14 04:37:29;;;;;;;0.10;0.10;;;;;;;23.62;71.66;101946.19;10419866;28;20024;-72
2022/07/14 04:42:30;;;;;;;0.10;0.10;;;;;;;24.38;68.37;101955.25;10417436;28;20380;-72
2022/07/14 04:47:31;;;;;;;0.10;0.10;;;;;;;25.02;64.64;101955.88;10425684;28;20294;-72
2022/07/14 04:52:31;;;;;;;0.10;0.10;;;;;;;25.55;62.79;101966.09;10415737;28;20036;-72
2022/07/14 04:57:31;;;;;;;0.00;0.00;;;;;;;26.01;60.59;101967.34;10421410;28;20044;-72
2022/07/14 05:02:32;;;;;;;0.00;0.00;;;;;;;26.49;60.35;101965.47;10415446;28;20029;-72
2022/07/14 05:07:33;;;;;;;0.10;0.10;;;;;;;27.04;55.71;101974.09;10428454;28;20013;-72
2022/07/14 05:12:33;;;;;;;0.10;0.10;;;;;;;27.21;53.10;101971.47;10419519;28;20713;-72
2022/07/14 05:17:34;;;;;;;0.10;0.10;;;;;;;27.56;51.69;101966.94;10427518;28;20033;-73
2022/07/14 05:22:36;;;;;;;0.10;0.10;;;;;;;27.81;51.46;101972.91;10429447;28;20025;-73
2022/07/14 05:27:37;;;;;;;0.10;0.10;;;;;;;28.07;50.18;101976.91;10423020;28;20823;-72
2022/07/14 05:32:38;;;;;;;0.10;0.10;;;;;;;28.10;50.31;101981.88;10432236;28;20075;-72
2022/07/14 05:37:38;;;;;;;0.10;0.10;;;;;;;28.47;48.75;101975.06;10413411;28;20086;-73
2022/07/14 05:42:38;;;;;;;0.10;0.10;;;;;;;28.70;46.87;101980.34;10417375;28;20384;-72
2022/07/14 05:47:41;;;;;;;0.10;0.10;;;;;;;28.91;46.75;101978.69;10422903;28;20075;-72
2022/07/14 05:52:43;;;;;;;0.10;0.10;;;;;;;29.03;45.47;101986.84;10395919;28;20020;-72
2022/07/14 05:57:43;;;;;;;0.10;0.10;;;;;;;28.34;48.28;101982.53;10423854;28;20029;-71
2022/07/14 06:02:43;;;;;;;;;;;;;;;28.52;47.56;101983.38;10424143;28;20025;-72
2022/07/14 06:07:43;;;;;;;0.10;0.10;;;;;;;29.00;45.50;101979.09;10433653;28;19921;-72
2022/07/14 06:12:44;;;;;;;0.10;0.10;;;;;;;29.41;44.22;101982.34;10433853;28;20025;-71
2022/07/14 06:17:44;;;;;;;0.10;0.10;;;;;;;29.85;43.47;101972.13;10429042;28;20028;-72
2022/07/14 06:22:44;;;;;;;0.10;0.10;;;;;;;30.13;44.00;101970.97;10430411;28;20027;-71
2022/07/14 06:27:45;;;;;;;0.10;0.10;;;;;;;30.55;40.60;101972.94;10434741;28;20030;-71
2022/07/14 06:32:45;;;;;;;0.10;0.10;;;;;;;28.94;43.10;101961.72;10438745;28;20502;-72
2022/07/14 06:37:45;;;;;;;0.10;0.10;;;;;;;26.77;48.07;101962.88;10426647;28;20017;-72
2022/07/14 06:42:47;;;;;;;0.10;0.10;;;;;;;25.37;51.04;101955.25;10430295;28;20282;-71
2022/07/14 06:47:48;;;;;;;0.03;0.03;;;;;;;25.71;53.86;101949.09;10436335;28;20025;-71
2022/07/14 06:52:48;;;;;;;0.10;0.10;;;;;;;27.37;51.12;101958.91;10426213;28;20130;-72
2022/07/14 06:57:48;;;;;;;0.10;0.10;;;;;;;28.37;46.74;101953.81;10428225;28;20036;-72
2022/07/14 07:02:49;;;;;;;0.10;0.10;;;;;;;28.92;45.76;101955.69;10436140;28;20112;-72
2022/07/14 07:07:49;;;;;;;;;;;;;;;27.63;45.22;101945.69;10427756;28;20487;-72
2022/07/14 07:12:49;;;;;;;0.10;0.10;;;;;;;26.42;48.34;101943.75;10419943;28;20007;-72
2022/07/14 07:17:50;;;;;;;0.10;0.10;;;;;;;27.08;47.09;101941.63;10434657;28;20025;-73
2022/07/14 07:22:50;;;;;;;0.10;0.10;;;;;;;27.41;42.19;101932.72;10427898;28;21229;-72
2022/07/14 07:27:50;;;;;;;0.10;0.10;;;;;;;27.74;44.45;101928.38;10431688;28;20025;-72
2022/07/14 07:32:50;;;;;;;0.10;0.10;;;;;;;27.96;42.59;101928.53;10422952;28;20086;-72
2022/07/14 07:37:51;;;;;;;0.10;0.10;;;;;;;27.16;43.41;101921.31;10428626;28;20384;-71
2022/07/14 07:42:51;;;;;;;0.10;0.10;;;;;;;27.30;45.73;101914.47;10431758;28;20025;-72
2022/07/14 07:47:51;;;;;;;0.10;0.10;;;;;;;26.30;45.35;101919.16;10424908;28;20025;-72
2022/07/14 07:52:52;;;;;;;0.10;0.10;;;;;;;27.39;44.29;101910.25;10418957;28;20039;-72
2022/07/14 07:57:52;;;;;;;0.03;0.03;;;;;;;28.41;44.46;101902.88;10429518;28;20037;-73
2022/07/14 08:02:54;;;;;;;0.10;0.10;;;;;;;27.72;42.03;101919.59;10411672;28;20029;-73
2022/07/14 08:07:54;;;;;;;0.10;0.10;;;;;;;25.74;44.85;101910.41;10415877;28;20053;-72
2022/07/14 08:12:54;;;;;;;0.10;0.10;;;;;;;26.39;44.78;101897.78;10400078;28;20056;-73
2022/07/14 08:17:55;;;;;;;0.10;0.10;;;;;;;27.07;43.20;101888.84;10416744;28;20024;-72
2022/07/14 08:22:55;;;;;;;0.10;0.10;;;;;;;27.47;43.79;101885.25;10423925;28;20021;-72
2022/07/14 08:27:56;;;;;;;0.10;0.10;;;;;;;27.89;41.60;101884.03;10435586;28;20033;-72
2022/07/14 08:32:56;;;;;;;0.10;0.10;;;;;;;27.91;43.93;101874.50;10448855;28;20039;-72
2022/07/14 08:37:56;;;;;;;0.10;0.10;;;;;;;28.02;41.16;101863.72;10450621;28;20047;-72
2022/07/14 08:42:57;;;;;;;0.00;0.00;;;;;;;28.42;38.19;101869.81;10450999;28;20116;-73
2022/07/14 08:47:57;;;;;;;0.10;0.10;;;;;;;27.99;37.70;101862.31;10420370;28;20024;-73
2022/07/14 08:52:57;;;;;;;0.10;0.10;;;;;;;26.54;40.40;101854.44;10419654;28;20025;-73
2022/07/14 08:57:58;;;;;;;0.10;0.10;;;;;;;26.22;42.06;101856.69;10433347;28;20076;-73
2022/07/14 09:02:59;;;;;;;0.00;0.00;;;;;;;26.19;42.65;101851.72;10420060;28;20116;-73
2022/07/14 09:07:59;;;;;;;0.10;0.10;;;;;;;24.91;47.73;101851.19;10408597;28;20284;-73
2022/07/14 09:13:30;;;;;;;0.07;0.07;;;;;;;23.61;52.02;101848.50;10423416;28;20032;-72
2022/07/14 09:18:31;;;;;;;0.00;0.00;;;;;;;23.16;54.31;101832.28;10399407;28;20067;-72
2022/07/14 09:23:35;;;;;;;0.00;0.00;;;;;;;24.13;56.32;101832.78;10417847;28;20071;-72
2022/07/14 09:28:42;;;;;;;0.03;0.03;;;;;;;24.81;55.74;101831.81;10418031;28;20025;-73
2022/07/14 09:33:42;;;;;;;0.00;0.00;;;;;;;25.03;51.87;101841.16;10407949;28;20082;-72
2022/07/14 09:38:45;;;;;;;0.10;0.10;;;;;;;25.58;52.61;101840.16;10408043;28;20094;-72
2022/07/14 09:44:09;;;;;;;0.00;0.00;;;;;;;25.35;53.38;101838.19;10442426;28;20623;-73
2022/07/14 09:49:09;;;;;;;0.10;0.10;;;;;;;24.72;52.99;101852.25;10436854;28;20064;-72
2022/07/14 09:54:10;;;;;;;0.10;0.10;;;;;;;23.75;55.35;101850.09;10421878;28;20029;-72
2022/07/14 09:59:10;;;;;;;0.00;0.00;;;;;;;23.60;58.52;101833.25;10407268;28;20010;-72
2022/07/14 10:04:10;;;;;;;0.10;0.10;;;;;;;23.52;54.59;101833.50;10418887;28;20021;-72
2022/07/14 10:09:11;;;;;;;0.00;0.00;;;;;;;23.19;55.72;101823.69;10407258;28;20120;-73
2022/07/14 10:14:12;;;;;;;0.10;0.10;;;;;;;23.14;57.38;101818.91;10393164;28;20036;-72
2022/07/14 10:19:12;;;;;;;0.00;0.00;;;;;;;23.75;56.12;101824.78;10417848;28;20045;-72
2022/07/14 10:24:14;;;;;;;0.00;0.00;;;;;;;24.14;55.25;101829.84;10416403;28;20035;-72
2022/07/14 10:29:14;;;;;;;0.00;0.00;;;;;;;24.09;53.10;101831.56;10395190;28;20022;-73
2022/07/14 10:34:34;;;;;;;0.00;0.00;;;;;;;23.94;54.05;101824.59;10435844;28;20407;-73
2022/07/14 10:40:11;;;;;;;0.00;0.00;;;;;;;23.95;52.27;101820.81;10430240;28;20435;-73
2022/07/14 10:45:11;;;;;;;0.00;0.00;;;;;;;23.84;52.35;101816.09;10430366;28;20022;-73
2022/07/14 10:50:13;;;;;;;0.00;0.00;;;;;;;23.46;53.22;101822.44;10408529;28;20017;-73
2022/07/14 10:55:23;;;;;;;0.00;0.00;;;;;;;23.15;56.64;101825.16;10427787;28;20028;-73
2022/07/14 11:00:42;;;;;;;0.00;0.00;;;;;;;22.98;54.51;101831.13;10414366;28;20096;-73
2022/07/14 11:06:03;;;;;;;0.10;0.10;;;;;;;23.00;55.29;101826.31;10422862;28;20025;-73
2022/07/14 11:11:08;;;;;;;0.00;0.00;;;;;;;23.16;53.67;101829.56;10454284;28;20056;-73
2022/07/14 11:16:09;;;;;;;0.10;0.10;;;;;;;23.12;54.23;101823.72;10422979;28;20478;-73
2022/07/14 11:21:13;;;;;;;0.00;0.00;;;;;;;23.14;53.47;101828.94;10427672;28;20071;-73
2022/07/14 11:26:32;;;;;;;0.10;0.10;;;;;;;23.01;54.58;101817.13;10411828;28;20025;-74
2022/07/14 11:31:46;;;;;;;0.00;0.00;;;;;;;23.08;53.80;101825.22;10452456;28;20021;-72
2022/07/14 11:37:03;;;;;;;0.00;0.00;;;;;;;23.25;54.09;101823.66;10434151;28;20032;-72
2022/07/14 11:42:12;;;;;;;0.00;0.00;;;;;;;23.21;55.03;101827.88;10450760;28;20016;-72
2022/07/14 11:47:19;;;;;;;0.05;0.05;;;;;;;22.94;52.59;101835.28;10429291;28;20013;-71
2022/07/14 11:52:32;;;;;;;0.00;0.00;;;;;;;22.68;54.86;101814.53;10423745;28;20021;-73
2022/07/14 11:57:32;;;;;;;0.00;0.00;;;;;;;22.36;55.45;101805.44;10438454;28;20067;-72
2022/07/14 12:02:33;;;;;;;0.00;0.00;;;;;;;22.12;56.54;101809.66;10452649;28;20431;-72
2022/07/14 12:07:45;;;;;;;0.00;0.00;;;;;;;21.69;57.70;101802.81;10452352;28;20028;-72
2022/07/14 12:12:47;;;;;;;0.00;0.00;;;;;;;21.38;58.44;101811.59;10448162;28;20041;-72
2022/07/14 12:17:49;;;;;;;0.10;0.10;;;;;;;21.33;60.00;101810.50;10425115;28;20017;-73
2022/07/14 12:22:55;;;;;;;0.10;0.10;;;;;;;21.35;60.33;101806.56;10431339;28;20078;-73
2022/07/14 12:27:56;;;;;;;0.10;0.10;;;;;;;21.37;59.95;101811.78;10489797;28;20036;-75
2022/07/14 12:32:56;;;;;;;0.00;0.00;;;;;;;21.32;59.96;101809.69;10491578;28;20031;-74
2022/07/14 12:37:57;;;;;;;0.00;0.00;;;;;;;21.14;58.38;101802.13;10476190;28;20625;-74
2022/07/14 12:42:57;;;;;;;0.10;0.10;;;;;;;21.37;61.12;101822.63;10488255;28;20387;-74
2022/07/14 12:48:03;;;;;;;0.10;0.10;;;;;;;21.60;62.12;101805.97;10483267;28;20491;-74
2022/07/14 12:53:08;;;;;;;0.00;0.00;;;;;;;21.74;62.58;101801.38;10478989;28;20025;-74
2022/07/14 12:58:09;;;;;;;0.00;0.00;;;;;;;21.76;60.36;101797.41;10445505;28;20092;-73
2022/07/14 13:03:15;;;;;;;0.00;0.00;;;;;;;22.10;62.32;101790.88;10405287;28;20049;-73
2022/07/14 13:08:29;;;;;;;0.10;0.10;;;;;;;22.46;60.17;101788.72;10408927;28;20450;-73
2022/07/14 13:13:31;;;;;;;0.10;0.10;;;;;;;22.45;58.29;101796.03;10445292;28;20035;-73
2022/07/14 13:18:32;;;;;;;0.00;0.00;;;;;;;22.24;58.00;101804.44;10409379;28;20388;-73
2022/07/14 13:23:37;;;;;;;0.00;0.00;;;;;;;21.91;58.22;101789.06;10422661;28;20024;-74
2022/07/14 13:28:40;;;;;;;0.00;0.00;;;;;;;21.29;63.93;101809.22;10408049;28;20480;-72
2022/07/14 13:33:43;;;;;;;0.00;0.00;;;;;;;20.50;70.28;101814.16;10414063;28;20125;-74
2022/07/14 13:38:44;;;;;;;0.00;0.00;;;;;;;19.86;76.69;101826.03;10400615;28;20036;-73
2022/07/14 13:43:47;;;;;;;0.00;0.00;;;;;;;19.42;78.37;101816.28;10433807;28;20392;-73
2022/07/14 13:48:47;;;;;;;0.00;0.00;;;;;;;19.30;81.59;101806.19;10431042;28;20017;-74
2022/07/14 13:53:47;;;;;;;0.00;0.00;;;;;;;19.28;82.97;101811.78;10417175;28;20074;-73
2022/07/14 13:58:48;;;;;;;0.10;0.10;;;;;;;19.42;81.17;101812.75;10449340;28;20104;-73
2022/07/14 14:03:48;;;;;;;0.10;0.10;;;;;;;19.71;81.38;101811.78;10438725;28;20523;-72
2022/07/14 14:08:49;;;;;;;0.05;0.05;;;;;;;20.09;83.18;101797.91;10433621;28;20032;-73
2022/07/14 14:13:49;;;;;;;0.10;0.10;;;;;;;20.52;76.00;101792.31;10438576;28;20449;-73
2022/07/14 14:18:49;;;;;;;0.10;0.10;;;;;;;20.86;74.70;101785.22;10414093;28;20032;-73
2022/07/14 14:23:50;;;;;;;0.00;0.00;;;;;;;20.74;71.76;101784.94;10423991;28;20017;-73
2022/07/14 14:28:50;;;;;;;0.00;0.00;;;;;;;20.60;75.92;101794.91;10412528;28;20030;-73
2022/07/14 14:33:51;;;;;;;0.00;0.00;;;;;;;20.47;74.54;101781.25;10423457;28;20029;-73
2022/07/14 14:38:51;;;;;;;0.00;0.00;;;;;;;20.55;73.95;101779.25;10423628;28;20617;-73
2022/07/14 14:43:52;;;;;;;0.08;0.08;;;;;;;20.64;70.36;101773.66;10419653;28;20451;-73
2022/07/14 14:48:55;;;;;;;0.00;0.00;;;;;;;20.46;69.64;101783.16;10435172;28;20032;-73
2022/07/14 14:53:55;;;;;;;0.10;0.10;;;;;;;20.20;69.00;101772.19;10403344;28;20488;-74
2022/07/14 14:58:56;;;;;;;0.10;0.10;;;;;;;20.13;70.39;101783.81;10449471;28;20041;-73
2022/07/14 15:03:56;;;;;;;0.10;0.10;;;;;;;20.35;64.27;101773.72;10416573;28;20029;-73
2022/07/14 15:08:57;;;;;;;0.00;0.00;;;;;;;20.50;60.44;101768.16;10424393;28;20013;-73
2022/07/14 15:13:57;;;;;;;0.10;0.10;;;;;;;20.29;58.96;101776.41;10397416;28;20028;-73
2022/07/14 15:18:57;;;;;;;0.10;0.10;;;;;;;20.02;59.89;101776.25;10421159;28;20028;-73
2022/07/14 15:23:59;;;;;;;0.00;0.00;;;;;;;19.90;63.06;101781.38;10423660;28;20105;-73
2022/07/14 15:29:00;;;;;;;0.10;0.10;;;;;;;19.70;65.60;101784.97;10420980;28;20602;-73
2022/07/14 15:34:01;;;;;;;0.10;0.10;;;;;;;19.63;67.55;101785.72;10453592;28;20473;-72
2022/07/14 15:44:20;;;;;;;0.00;0.00;;;;;;;19.53;71.05;101774.41;10437626;28;20026;-72
2022/07/14 15:49:20;;;;;;;0.00;0.00;;;;;;;19.65;71.49;101775.56;10417250;28;20029;-73
2022/07/14 15:54:21;;;;;;;0.00;0.00;;;;;;;19.60;70.98;101767.19;10427873;28;20029;-73
2022/07/14 15:59:21;;;;;;;0.10;0.10;;;;;;;19.30;73.72;101757.59;10393853;28;20114;-73
2022/07/14 16:04:22;;;;;;;0.10;0.10;;;;;;;18.90;71.11;101762.59;10423294;28;20463;-73
2022/07/14 16:09:22;;;;;;;0.10;0.10;;;;;;;18.61;75.23;101756.22;10415897;28;20029;-74
2022/07/14 16:14:23;;;;;;;0.10;0.10;;;;;;;18.64;75.85;101769.31;10432160;28;20116;-74
2022/07/14 16:19:24;;;;;;;0.00;0.00;;;;;;;18.83;76.78;101764.38;10400034;28;20017;-74
2022/07/14 16:24:24;;;;;;;0.03;0.03;;;;;;;19.00;77.24;101761.25;10403959;28;20021;-74
2022/07/14 16:29:24;;;;;;;0.10;0.10;;;;;;;19.17;77.54;101761.00;10426049;28;20399;-74
2022/07/14 16:34:25;;;;;;;0.10;0.10;;;;;;;18.95;77.15;101762.84;10439375;28;20260;-73
2022/07/14 16:39:25;;;;;;;0.10;0.10;;;;;;;18.72;78.95;101762.97;10415350;28;20018;-73
2022/07/14 16:44:26;;;;;;;0.00;0.00;;;;;;;18.61;79.14;101761.59;10432740;28;20024;-73
2022/07/14 16:49:26;;;;;;;0.10;0.10;;;;;;;18.43;75.46;101758.47;10409648;28;20461;-73
2022/07/14 16:54:27;;;;;;;0.10;0.10;;;;;;;18.40;77.37;101753.47;10436964;28;20479;-74
2022/07/14 16:59:27;;;;;;;0.00;0.00;;;;;;;18.60;79.00;101754.53;10409907;28;20024;-74
2022/07/14 17:04:28;;;;;;;0.10;0.10;;;;;;;18.78;75.60;101748.75;10409049;28;20021;-74
2022/07/14 17:09:28;;;;;;;0.10;0.10;;;;;;;18.91;76.62;101748.09;10420165;28;20029;-74
2022/07/14 17:14:28;;;;;;;0.10;0.10;;;;;;;18.88;74.49;101752.00;10426991;28;20021;-73
2022/07/14 17:19:29;;;;;;;0.10;0.10;;;;;;;18.78;74.42;101762.25;10429432;28;20464;-73
2022/07/14 17:24:29;;;;;;;0.00;0.00;;;;;;;18.65;75.61;101751.28;10391883;28;20033;-73
2022/07/14 17:29:30;;;;;;;0.10;0.10;;;;;;;18.53;76.17;101767.13;10445931;28;20025;-73
2022/07/14 17:34:30;;;;;;;0.10;0.10;;;;;;;18.32;73.67;101766.03;10425576;28;20120;-73
2022/07/14 17:39:30;;;;;;;0.10;0.10;;;;;;;18.24;76.15;101768.00;10413858;28;20014;-73
2022/07/14 17:44:31;;;;;;;0.10;0.10;;;;;;;18.10;76.33;101765.13;10433058;28;20021;-73
2022/07/14 17:49:31;;;;;;;0.10;0.10;;;;;;;17.94;76.32;101781.44;10424485;28;20091;-73
2022/07/14 17:54:31;;;;;;;0.10;0.10;;;;;;;17.77;76.40;101772.69;10436508;28;20087;-73
2022/07/14 17:59:32;;;;;;;0.10;0.10;;;;;;;17.60;77.88;101779.25;10432732;28;20075;-73
2022/07/14 18:04:33;;;;;;;0.10;0.10;;;;;;;17.37;79.75;101785.50;10422139;28;20522;-73
2022/07/14 18:09:33;;;;;;;0.10;0.10;;;;;;;17.28;79.60;101785.72;10409794;28;20026;-73
2022/07/14 18:14:34;;;;;;;0.10;0.10;;;;;;;17.17;80.09;101789.69;10444747;28;20020;-74
2022/07/14 18:19:35;;;;;;;0.10;0.10;;;;;;;16.97;78.85;101792.00;10448542;28;20394;-73
2022/07/14 18:24:36;;;;;;;0.10;0.10;;;;;;;16.78;78.34;101797.81;10443410;28;20104;-73
2022/07/14 18:29:38;;;;;;;0.10;0.10;;;;;;;16.60;77.83;101801.56;10421599;28;20033;-73
2022/07/14 18:34:39;;;;;;;0.10;0.10;;;;;;;16.41;78.05;101804.69;10439861;28;20052;-73
2022/07/14 18:39:40;;;;;;;0.10;0.10;;;;;;;16.22;78.28;101798.69;10420640;28;20696;-74
2022/07/14 18:49:59;;;;;;;0.10;0.10;;;;;;;15.94;79.08;101808.16;10440100;28;20021;-73
2022/07/14 18:54:59;;;;;;;0.10;0.10;;;;;;;15.81;81.64;101809.53;10433244;28;20017;-73
2022/07/14 19:00:00;;;;;;;0.10;0.10;;;;;;;15.71;83.18;101810.72;10428499;28;20431;-73
2022/07/14 19:05:00;;;;;;;0.10;0.10;;;;;;;15.63;83.70;101808.84;10425837;28;20062;-74
2022/07/14 19:10:00;;;;;;;0.10;0.10;;;;;;;15.49;83.13;101815.72;10427564;28;20022;-74
2022/07/14 19:15:01;;;;;;;0.03;0.03;;;;;;;15.34;84.66;101818.22;10438308;28;20357;-74
2022/07/14 19:20:02;;;;;;;0.10;0.10;;;;;;;15.24;85.64;101827.44;10441245;28;20673;-74
2022/07/14 19:25:02;;;;;;;0.10;0.10;;;;;;;15.09;87.42;101830.75;10423948;28;20040;-74
2022/07/14 19:30:04;;;;;;;0.10;0.10;;;;;;;14.93;89.77;101841.47;10427302;28;20035;-74
2022/07/14 19:35:04;;;;;;;0.10;0.10;;;;;;;14.78;91.24;101843.94;10435840;28;20029;-74
2022/07/14 19:40:05;;;;;;;0.10;0.10;;;;;;;14.67;91.60;101846.91;10429658;28;20021;-74
2022/07/14 19:45:06;;;;;;;0.10;0.10;;;;;;;14.57;92.34;101841.63;10433624;28;20693;-74
2022/07/14 19:50:07;;;;;;;0.10;0.10;;;;;;;14.45;93.27;101848.25;10437534;28;20014;-73
2022/07/14 19:55:09;;;;;;;0.10;0.10;;;;;;;14.36;94.54;101841.19;10430318;28;20032;-74
2022/07/14 20:00:11;;;;;;;0.10;0.10;;;;;;;14.25;95.85;101850.31;10431815;28;20044;-73
2022/07/14 20:05:13;;;;;;;0.10;0.10;;;;;;;14.13;96.57;101848.91;10425741;28;20025;-73
2022/07/14 20:10:13;;;;;;;0.10;0.10;;;;;;;13.98;97.96;101849.47;10418649;28;20075;-73
2022/07/14 20:15:14;;;;;;;0.10;0.10;;;;;;;13.87;98.35;101852.41;10432397;28;20100;-73
2022/07/14 20:20:15;;;;;;;0.10;0.10;;;;;;;13.74;98.58;101857.34;10438896;28;20064;-73
2022/07/14 20:25:20;;;;;;;0.10;0.10;;;;;;;13.65;98.98;101855.59;10430306;28;20702;-73
2022/07/14 20:35:55;;;;;;;0.10;0.10;;;;;;;13.38;100.00;101865.38;10385849;28;20191;-73
2022/07/14 20:40:56;;;;;;;0.10;0.10;;;;;;;13.30;100.00;101858.09;10424358;28;20021;-73
2022/07/14 20:45:57;;;;;;;0.10;0.10;;;;;;;13.21;100.00;101866.19;10436027;28;20023;-74
2022/07/14 20:50:57;;;;;;;0.10;0.10;;;;;;;13.13;100.00;101866.91;10420759;28;20030;-73
2022/07/14 20:55:57;;;;;;;0.05;0.05;;;;;;;13.09;100.00;101861.03;10414393;28;20022;-73
2022/07/14 21:00:58;;;;;;;0.10;0.10;;;;;;;13.01;100.00;101860.94;10432278;28;20052;-73
2022/07/14 21:06:02;;;;;;;0.10;0.10;;;;;;;12.89;100.00;101868.31;10421266;28;20072;-73
2022/07/14 21:11:02;;;;;;;0.10;0.10;;;;;;;12.79;100.00;101864.84;10421860;28;20041;-74
2022/07/14 21:16:03;;;;;;;0.10;0.10;;;;;;;12.71;100.00;101861.22;10435205;28;20431;-73
2022/07/14 21:21:04;;;;;;;0.10;0.10;;;;;;;12.59;100.00;101855.22;10404287;28;20013;-74
2022/07/14 21:26:05;;;;;;;0.10;0.10;;;;;;;12.49;100.00;101855.28;10429994;28;20624;-73
2022/07/14 21:31:06;;;;;;;0.10;0.10;;;;;;;12.41;100.00;101863.19;10423662;28;20078;-73
2022/07/14 21:36:07;;;;;;;0.10;0.10;;;;;;;12.35;100.00;101861.09;10429830;28;20013;-74
2022/07/14 21:41:07;;;;;;;0.10;0.10;;;;;;;12.29;100.00;101867.84;10425116;28;20028;-74
2022/07/14 21:46:07;;;;;;;0.10;0.10;;;;;;;12.23;100.00;101863.94;10437731;28;20098;-74
2022/07/14 21:51:08;;;;;;;0.10;0.10;;;;;;;12.24;100.00;101862.94;10419374;28;20499;-74
2022/07/14 21:56:08;;;;;;;0.10;0.10;;;;;;;12.37;100.00;101867.97;10443571;28;20094;-74
2022/07/14 22:01:08;;;;;;;0.10;0.10;;;;;;;12.59;100.00;101863.25;10427613;28;20256;-74
2022/07/14 22:06:09;;;;;;;0.10;0.10;;;;;;;12.80;100.00;101871.03;10418580;28;20031;-74
2022/07/14 22:11:10;;;;;;;0.05;0.05;;;;;;;12.97;100.00;101864.06;10427862;28;20051;-74
2022/07/14 22:16:12;;;;;;;0.10;0.10;;;;;;;13.11;100.00;101867.06;10433665;28;20029;-74
2022/07/14 22:21:12;;;;;;;0.10;0.10;;;;;;;13.19;100.00;101870.84;10424026;28;20248;-74
2022/07/14 22:26:13;;;;;;;0.08;0.08;;;;;;;13.20;100.00;101853.78;10418751;28;20096;-74
2022/07/14 22:31:14;;;;;;;0.00;0.00;;;;;;;13.19;100.00;101860.97;10439860;28;20063;-74
2022/07/14 22:36:14;;;;;;;0.10;0.10;;;;;;;13.17;100.00;101862.09;10426923;28;20361;-74
2022/07/14 22:41:15;;;;;;;0.10;0.10;;;;;;;13.16;100.00;101855.09;10431711;28;20018;-74
2022/07/14 22:46:15;;;;;;;0.10;0.10;;;;;;;13.12;100.00;101858.06;10413344;28;20256;-74
2022/07/14 22:51:16;;;;;;;0.10;0.10;;;;;;;13.04;100.00;101855.28;10431132;28;20104;-73
2022/07/14 22:56:17;;;;;;;0.10;0.10;;;;;;;12.93;100.00;101855.50;10430952;28;20029;-73
2022/07/14 23:01:17;;;;;;;0.10;0.10;;;;;;;12.77;100.00;101856.16;10442273;28;20040;-74
2022/07/14 23:06:18;;;;;;;0.10;0.10;;;;;;;12.69;100.00;101854.22;10447311;28;20049;-73
2022/07/14 23:16:37;;;;;;;0.10;0.10;;;;;;;12.69;100.00;101843.53;10425172;28;20112;-73
2022/07/14 23:21:37;;;;;;;0.00;0.00;;;;;;;12.77;100.00;101837.44;10432997;28;20545;-73